sensor_id;sensor_type;location;lat;lon;timestamp;pressure;altitude;pressure_sealevel;temperature
15709;BMP180;7954;51.914;8.420;2023-06-26T00:01:23;100105.69;;;30.57
15709;BMP180;7954;51.914;8.420;2023-06-26T00:03:51;100108.19;;;30.56
15709;BMP180;7954;51.914;8.420;2023-06-26T00:06:20;100101.28;;;30.46
15709;BMP180;7954;51.914;8.420;2023-06-26T00:08:51;100106.88;;;30.41
15709;BMP180;7954;51.914;8.420;2023-06-26T00:11:19;100107.66;;;30.40
15709;BMP180;7954;51.914;8.420;2023-06-26T00:13:47;100097.75;;;30.36
15709;BMP180;7954;51.914;8.420;2023-06-26T00:16:15;100095.41;;;30.29
15709;BMP180;7954;51.914;8.420;2023-06-26T00:18:43;100098.56;;;30.25
15709;BMP180;7954;51.914;8.420;2023-06-26T00:21:11;100091.28;;;30.21
15709;BMP180;7954;51.914;8.420;2023-06-26T00:23:41;100094.78;;;30.11
15709;BMP180;7954;51.914;8.420;2023-06-26T00:26:09;100098.03;;;30.09
15709;BMP180;7954;51.914;8.420;2023-06-26T00:28:37;100086.06;;;30.01
15709;BMP180;7954;51.914;8.420;2023-06-26T00:31:06;100085.84;;;29.98
15709;BMP180;7954;51.914;8.420;2023-06-26T00:33:34;100087.13;;;29.93
15709;BMP180;7954;51.914;8.420;2023-06-26T00:36:02;100087.22;;;29.85
15709;BMP180;7954;51.914;8.420;2023-06-26T00:38:31;100089.44;;;29.80
15709;BMP180;7954;51.914;8.420;2023-06-26T00:41:00;100079.28;;;29.73
15709;BMP180;7954;51.914;8.420;2023-06-26T00:43:28;100081.47;;;29.69
15709;BMP180;7954;51.914;8.420;2023-06-26T00:45:56;100074.19;;;29.65
15709;BMP180;7954;51.914;8.420;2023-06-26T00:48:24;100078.75;;;29.57
15709;BMP180;7954;51.914;8.420;2023-06-26T00:50:52;100072.59;;;29.57
15709;BMP180;7954;51.914;8.420;2023-06-26T00:53:21;100076.66;;;29.53
15709;BMP180;7954;51.914;8.420;2023-06-26T00:55:49;100071.19;;;29.50
15709;BMP180;7954;51.914;8.420;2023-06-26T00:58:19;100071.69;;;29.46
15709;BMP180;7954;51.914;8.420;2023-06-26T01:00:47;100073.63;;;29.39
15709;BMP180;7954;51.914;8.420;2023-06-26T01:03:16;100078.72;;;29.37
15709;BMP180;7954;51.914;8.420;2023-06-26T01:05:44;100075.56;;;29.31
15709;BMP180;7954;51.914;8.420;2023-06-26T01:08:16;100078.78;;;29.29
15709;BMP180;7954;51.914;8.420;2023-06-26T01:10:44;100072.03;;;29.21
15709;BMP180;7954;51.914;8.420;2023-06-26T01:13:14;100060.31;;;29.16
15709;BMP180;7954;51.914;8.420;2023-06-26T01:15:46;100055.31;;;29.09
15709;BMP180;7954;51.914;8.420;2023-06-26T01:18:15;100057.50;;;29.05
15709;BMP180;7954;51.914;8.420;2023-06-26T01:20:43;100055.03;;;28.96
15709;BMP180;7954;51.914;8.420;2023-06-26T01:23:14;100058.41;;;28.95
15709;BMP180;7954;51.914;8.420;2023-06-26T01:25:55;100055.25;;;28.89
15709;BMP180;7954;51.914;8.420;2023-06-26T01:28:27;100054.06;;;28.86
15709;BMP180;7954;51.914;8.420;2023-06-26T01:30:55;100044.06;;;28.80
15709;BMP180;7954;51.914;8.420;2023-06-26T01:33:23;100048.53;;;28.73
15709;BMP180;7954;51.914;8.420;2023-06-26T01:35:51;100040.31;;;28.68
15709;BMP180;7954;51.914;8.420;2023-06-26T01:38:20;100038.88;;;28.62
15709;BMP180;7954;51.914;8.420;2023-06-26T01:40:49;100043.00;;;28.60
15709;BMP180;7954;51.914;8.420;2023-06-26T01:43:23;100036.50;;;28.55
15709;BMP180;7954;51.914;8.420;2023-06-26T01:45:58;100033.63;;;28.52
15709;BMP180;7954;51.914;8.420;2023-06-26T01:48:30;100029.97;;;28.50
15709;BMP180;7954;51.914;8.420;2023-06-26T01:51:00;100029.44;;;28.44
15709;BMP180;7954;51.914;8.420;2023-06-26T01:53:34;100021.09;;;28.38
15709;BMP180;7954;51.914;8.420;2023-06-26T01:56:06;100011.34;;;28.36
15709;BMP180;7954;51.914;8.420;2023-06-26T01:58:37;100019.47;;;28.30
15709;BMP180;7954;51.914;8.420;2023-06-26T02:01:08;100015.97;;;28.30
15709;BMP180;7954;51.914;8.420;2023-06-26T02:03:37;100009.59;;;28.26
15709;BMP180;7954;51.914;8.420;2023-06-26T02:06:06;100013.75;;;28.24
15709;BMP180;7954;51.914;8.420;2023-06-26T02:08:33;100002.28;;;28.22
15709;BMP180;7954;51.914;8.420;2023-06-26T02:11:01;99996.03;;;28.20
15709;BMP180;7954;51.914;8.420;2023-06-26T02:13:29;99995.31;;;28.13
15709;BMP180;7954;51.914;8.420;2023-06-26T02:15:56;99996.25;;;28.13
15709;BMP180;7954;51.914;8.420;2023-06-26T02:18:26;99997.00;;;28.12
15709;BMP180;7954;51.914;8.420;2023-06-26T02:20:54;99996.56;;;28.08
15709;BMP180;7954;51.914;8.420;2023-06-26T02:23:22;99994.91;;;28.08
15709;BMP180;7954;51.914;8.420;2023-06-26T02:25:50;99997.84;;;28.03
15709;BMP180;7954;51.914;8.420;2023-06-26T02:28:18;100001.25;;;28.02
15709;BMP180;7954;51.914;8.420;2023-06-26T02:30:46;99994.56;;;27.95
15709;BMP180;7954;51.914;8.420;2023-06-26T02:33:14;99994.28;;;27.92
15709;BMP180;7954;51.914;8.420;2023-06-26T02:35:44;99993.22;;;27.91
15709;BMP180;7954;51.914;8.420;2023-06-26T02:38:12;99987.13;;;27.90
15709;BMP180;7954;51.914;8.420;2023-06-26T02:40:40;99986.69;;;27.86
15709;BMP180;7954;51.914;8.420;2023-06-26T02:43:08;99978.50;;;27.81
15709;BMP180;7954;51.914;8.420;2023-06-26T02:45:35;99974.09;;;27.80
15709;BMP180;7954;51.914;8.420;2023-06-26T02:48:03;99976.53;;;27.79
15709;BMP180;7954;51.914;8.420;2023-06-26T02:50:32;99978.06;;;27.77
15709;BMP180;7954;51.914;8.420;2023-06-26T02:53:03;99977.63;;;27.72
15709;BMP180;7954;51.914;8.420;2023-06-26T02:55:32;99974.91;;;27.71
15709;BMP180;7954;51.914;8.420;2023-06-26T02:58:00;99973.25;;;27.71
15709;BMP180;7954;51.914;8.420;2023-06-26T03:00:28;99974.00;;;27.70
15709;BMP180;7954;51.914;8.420;2023-06-26T03:02:56;99975.69;;;27.70
15709;BMP180;7954;51.914;8.420;2023-06-26T03:05:25;99979.06;;;27.69
15709;BMP180;7954;51.914;8.420;2023-06-26T03:07:52;99977.88;;;27.65
15709;BMP180;7954;51.914;8.420;2023-06-26T03:10:23;99975.91;;;27.63
15709;BMP180;7954;51.914;8.420;2023-06-26T03:12:51;99977.56;;;27.62
15709;BMP180;7954;51.914;8.420;2023-06-26T03:15:19;99974.97;;;27.62
15709;BMP180;7954;51.914;8.420;2023-06-26T03:17:47;99981.09;;;27.63
15709;BMP180;7954;51.914;8.420;2023-06-26T03:20:15;99982.63;;;27.61
15709;BMP180;7954;51.914;8.420;2023-06-26T03:22:43;99977.16;;;27.58
15709;BMP180;7954;51.914;8.420;2023-06-26T03:25:11;99977.91;;;27.57
15709;BMP180;7954;51.914;8.420;2023-06-26T03:27:40;99976.06;;;27.56
15709;BMP180;7954;51.914;8.420;2023-06-26T03:30:09;99979.75;;;27.58
15709;BMP180;7954;51.914;8.420;2023-06-26T03:32:37;99979.13;;;27.60
15709;BMP180;7954;51.914;8.420;2023-06-26T03:35:05;99979.00;;;27.59
15709;BMP180;7954;51.914;8.420;2023-06-26T03:37:34;99976.22;;;27.57
15709;BMP180;7954;51.914;8.420;2023-06-26T03:40:02;99968.63;;;27.59
15709;BMP180;7954;51.914;8.420;2023-06-26T03:42:31;99973.81;;;27.59
15709;BMP180;7954;51.914;8.420;2023-06-26T03:45:01;99974.84;;;27.61
15709;BMP180;7954;51.914;8.420;2023-06-26T03:47:30;99966.28;;;27.62
15709;BMP180;7954;51.914;8.420;2023-06-26T03:49:57;99971.34;;;27.60
15709;BMP180;7954;51.914;8.420;2023-06-26T03:52:26;99974.84;;;27.61
15709;BMP180;7954;51.914;8.420;2023-06-26T03:54:53;99979.53;;;27.65
15709;BMP180;7954;51.914;8.420;2023-06-26T03:57:21;99975.13;;;27.64
15709;BMP180;7954;51.914;8.420;2023-06-26T03:59:50;99965.78;;;27.66
15709;BMP180;7954;51.914;8.420;2023-06-26T04:02:19;99972.06;;;27.68
15709;BMP180;7954;51.914;8.420;2023-06-26T04:04:47;99975.22;;;27.74
15709;BMP180;7954;51.914;8.420;2023-06-26T04:07:15;99980.25;;;27.72
15709;BMP180;7954;51.914;8.420;2023-06-26T04:09:43;99981.44;;;27.76
15709;BMP180;7954;51.914;8.420;2023-06-26T04:12:11;99979.78;;;27.76
15709;BMP180;7954;51.914;8.420;2023-06-26T04:14:39;99973.94;;;27.79
15709;BMP180;7954;51.914;8.420;2023-06-26T04:17:07;99974.97;;;27.81
15709;BMP180;7954;51.914;8.420;2023-06-26T04:19:36;99981.50;;;27.86
15709;BMP180;7954;51.914;8.420;2023-06-26T04:22:04;99972.31;;;27.89
15709;BMP180;7954;51.914;8.420;2023-06-26T04:24:32;99975.19;;;27.92
15709;BMP180;7954;51.914;8.420;2023-06-26T04:27:00;99979.91;;;27.96
15709;BMP180;7954;51.914;8.420;2023-06-26T04:29:28;99976.66;;;27.98
15709;BMP180;7954;51.914;8.420;2023-06-26T04:31:56;99967.47;;;28.02
15709;BMP180;7954;51.914;8.420;2023-06-26T04:34:25;99962.69;;;28.06
15709;BMP180;7954;51.914;8.420;2023-06-26T04:36:54;99971.53;;;28.08
15709;BMP180;7954;51.914;8.420;2023-06-26T04:39:22;99964.78;;;28.10
15709;BMP180;7954;51.914;8.420;2023-06-26T04:41:50;99973.16;;;28.16
15709;BMP180;7954;51.914;8.420;2023-06-26T04:44:19;99972.22;;;28.16
15709;BMP180;7954;51.914;8.420;2023-06-26T04:46:47;99964.09;;;28.21
15709;BMP180;7954;51.914;8.420;2023-06-26T04:49:18;99969.72;;;28.26
15709;BMP180;7954;51.914;8.420;2023-06-26T04:51:46;99963.75;;;28.27
15709;BMP180;7954;51.914;8.420;2023-06-26T04:54:16;99970.41;;;28.33
15709;BMP180;7954;51.914;8.420;2023-06-26T04:56:44;99981.34;;;28.39
15709;BMP180;7954;51.914;8.420;2023-06-26T04:59:13;99975.13;;;28.47
15709;BMP180;7954;51.914;8.420;2023-06-26T05:01:41;99979.16;;;28.54
15709;BMP180;7954;51.914;8.420;2023-06-26T05:04:15;99987.38;;;28.58
15709;BMP180;7954;51.914;8.420;2023-06-26T05:06:43;99976.47;;;28.62
15709;BMP180;7954;51.914;8.420;2023-06-26T05:09:10;99975.31;;;28.68
15709;BMP180;7954;51.914;8.420;2023-06-26T05:11:40;99976.03;;;28.76
15709;BMP180;7954;51.914;8.420;2023-06-26T05:14:09;99971.63;;;28.85
15709;BMP180;7954;51.914;8.420;2023-06-26T05:16:37;99976.34;;;28.89
15709;BMP180;7954;51.914;8.420;2023-06-26T05:19:05;99977.91;;;28.97
15709;BMP180;7954;51.914;8.420;2023-06-26T05:21:34;99972.47;;;29.04
15709;BMP180;7954;51.914;8.420;2023-06-26T05:24:05;99962.06;;;29.14
15709;BMP180;7954;51.914;8.420;2023-06-26T05:26:34;99967.78;;;29.20
15709;BMP180;7954;51.914;8.420;2023-06-26T05:29:04;99970.66;;;29.23
15709;BMP180;7954;51.914;8.420;2023-06-26T05:31:33;99967.41;;;29.15
15709;BMP180;7954;51.914;8.420;2023-06-26T05:34:03;99972.34;;;29.22
15709;BMP180;7954;51.914;8.420;2023-06-26T05:36:34;99959.63;;;29.35
15709;BMP180;7954;51.914;8.420;2023-06-26T05:39:03;99964.84;;;29.35
15709;BMP180;7954;51.914;8.420;2023-06-26T05:41:31;99971.72;;;29.34
15709;BMP180;7954;51.914;8.420;2023-06-26T05:43:59;99974.19;;;29.43
15709;BMP180;7954;51.914;8.420;2023-06-26T05:46:29;99972.13;;;29.39
15709;BMP180;7954;51.914;8.420;2023-06-26T05:48:57;99980.59;;;29.46
15709;BMP180;7954;51.914;8.420;2023-06-26T05:51:25;99973.84;;;29.48
15709;BMP180;7954;51.914;8.420;2023-06-26T05:53:53;99976.94;;;29.54
15709;BMP180;7954;51.914;8.420;2023-06-26T05:56:22;99962.59;;;29.69
15709;BMP180;7954;51.914;8.420;2023-06-26T05:58:50;99975.88;;;29.82
15709;BMP180;7954;51.914;8.420;2023-06-26T06:01:18;99975.34;;;29.76
15709;BMP180;7954;51.914;8.420;2023-06-26T06:03:48;99977.72;;;29.63
15709;BMP180;7954;51.914;8.420;2023-06-26T06:06:17;99983.31;;;29.88
15709;BMP180;7954;51.914;8.420;2023-06-26T06:08:45;99989.13;;;29.85
15709;BMP180;7954;51.914;8.420;2023-06-26T06:11:15;99986.66;;;29.87
15709;BMP180;7954;51.914;8.420;2023-06-26T06:13:42;99983.44;;;29.69
15709;BMP180;7954;51.914;8.420;2023-06-26T06:16:10;99988.25;;;29.75
15709;BMP180;7954;51.914;8.420;2023-06-26T06:18:38;99986.03;;;29.69
15709;BMP180;7954;51.914;8.420;2023-06-26T06:21:08;99988.25;;;29.65
15709;BMP180;7954;51.914;8.420;2023-06-26T06:23:36;99985.66;;;29.65
15709;BMP180;7954;51.914;8.420;2023-06-26T06:26:04;99981.63;;;29.88
15709;BMP180;7954;51.914;8.420;2023-06-26T06:28:32;99986.97;;;29.90
15709;BMP180;7954;51.914;8.420;2023-06-26T06:31:00;99977.75;;;30.24
15709;BMP180;7954;51.914;8.420;2023-06-26T06:33:28;100003.91;;;30.46
15709;BMP180;7954;51.914;8.420;2023-06-26T06:35:56;99997.53;;;30.73
15709;BMP180;7954;51.914;8.420;2023-06-26T06:38:25;99991.41;;;30.94
15709;BMP180;7954;51.914;8.420;2023-06-26T06:40:53;100000.19;;;31.16
15709;BMP180;7954;51.914;8.420;2023-06-26T06:43:21;100000.16;;;30.95
15709;BMP180;7954;51.914;8.420;2023-06-26T06:45:49;99990.25;;;31.01
15709;BMP180;7954;51.914;8.420;2023-06-26T06:48:17;100016.22;;;30.89
15709;BMP180;7954;51.914;8.420;2023-06-26T06:50:45;100046.75;;;30.90
15709;BMP180;7954;51.914;8.420;2023-06-26T06:53:12;100026.53;;;30.88
15709;BMP180;7954;51.914;8.420;2023-06-26T06:55:42;100021.59;;;30.91
15709;BMP180;7954;51.914;8.420;2023-06-26T06:58:10;100022.50;;;30.60
15709;BMP180;7954;51.914;8.420;2023-06-26T07:00:38;100026.97;;;30.31
15709;BMP180;7954;51.914;8.420;2023-06-26T07:03:06;100023.31;;;29.98
15709;BMP180;7954;51.914;8.420;2023-06-26T07:05:34;100029.81;;;29.93
15709;BMP180;7954;51.914;8.420;2023-06-26T07:08:02;100030.47;;;29.91
15709;BMP180;7954;51.914;8.420;2023-06-26T07:10:31;100029.50;;;30.10
15709;BMP180;7954;51.914;8.420;2023-06-26T07:13:00;100037.59;;;30.13
15709;BMP180;7954;51.914;8.420;2023-06-26T07:15:28;100046.72;;;30.18
15709;BMP180;7954;51.914;8.420;2023-06-26T07:17:56;100049.53;;;30.31
15709;BMP180;7954;51.914;8.420;2023-06-26T07:20:24;100047.56;;;30.48
15709;BMP180;7954;51.914;8.420;2023-06-26T07:22:52;100047.50;;;30.68
15709;BMP180;7954;51.914;8.420;2023-06-26T07:25:21;100048.06;;;30.85
15709;BMP180;7954;51.914;8.420;2023-06-26T07:27:49;100034.22;;;30.96
15709;BMP180;7954;51.914;8.420;2023-06-26T07:30:18;100034.81;;;31.25
15709;BMP180;7954;51.914;8.420;2023-06-26T07:32:46;100036.66;;;31.26
15709;BMP180;7954;51.914;8.420;2023-06-26T07:35:15;100048.53;;;31.23
15709;BMP180;7954;51.914;8.420;2023-06-26T07:37:43;100049.88;;;31.18
15709;BMP180;7954;51.914;8.420;2023-06-26T07:40:11;100066.81;;;31.44
15709;BMP180;7954;51.914;8.420;2023-06-26T07:42:39;100051.03;;;31.64
15709;BMP180;7954;51.914;8.420;2023-06-26T07:45:08;100051.00;;;31.52
15709;BMP180;7954;51.914;8.420;2023-06-26T07:47:40;100053.72;;;31.54
15709;BMP180;7954;51.914;8.420;2023-06-26T07:50:08;100062.50;;;31.66
15709;BMP180;7954;51.914;8.420;2023-06-26T07:52:37;100073.06;;;31.67
15709;BMP180;7954;51.914;8.420;2023-06-26T07:55:05;100069.94;;;31.50
15709;BMP180;7954;51.914;8.420;2023-06-26T07:57:34;100071.06;;;31.75
15709;BMP180;7954;51.914;8.420;2023-06-26T08:00:02;100103.34;;;31.54
15709;BMP180;7954;51.914;8.420;2023-06-26T08:02:33;100106.38;;;31.70
15709;BMP180;7954;51.914;8.420;2023-06-26T08:05:03;100118.78;;;31.84
15709;BMP180;7954;51.914;8.420;2023-06-26T08:07:31;100125.66;;;31.60
15709;BMP180;7954;51.914;8.420;2023-06-26T08:09:59;100121.97;;;31.37
15709;BMP180;7954;51.914;8.420;2023-06-26T08:12:26;100118.47;;;30.95
15709;BMP180;7954;51.914;8.420;2023-06-26T08:14:54;100130.19;;;31.10
15709;BMP180;7954;51.914;8.420;2023-06-26T08:17:22;100120.19;;;30.63
15709;BMP180;7954;51.914;8.420;2023-06-26T08:19:50;100124.50;;;30.13
15709;BMP180;7954;51.914;8.420;2023-06-26T08:22:19;100137.13;;;29.99
15709;BMP180;7954;51.914;8.420;2023-06-26T08:24:47;100135.72;;;30.02
15709;BMP180;7954;51.914;8.420;2023-06-26T08:27:15;100123.31;;;30.10
15709;BMP180;7954;51.914;8.420;2023-06-26T08:29:43;100137.13;;;29.89
15709;BMP180;7954;51.914;8.420;2023-06-26T08:32:11;100143.22;;;29.80
15709;BMP180;7954;51.914;8.420;2023-06-26T08:34:39;100121.78;;;29.92
15709;BMP180;7954;51.914;8.420;2023-06-26T08:37:07;100118.88;;;29.89
15709;BMP180;7954;51.914;8.420;2023-06-26T08:39:37;100122.75;;;29.84
15709;BMP180;7954;51.914;8.420;2023-06-26T08:42:05;100112.00;;;29.90
15709;BMP180;7954;51.914;8.420;2023-06-26T08:44:33;100130.72;;;29.86
15709;BMP180;7954;51.914;8.420;2023-06-26T08:47:06;100125.94;;;30.10
15709;BMP180;7954;51.914;8.420;2023-06-26T08:49:37;100134.78;;;30.42
15709;BMP180;7954;51.914;8.420;2023-06-26T08:52:15;100130.59;;;30.73
15709;BMP180;7954;51.914;8.420;2023-06-26T08:54:52;100151.00;;;30.99
15709;BMP180;7954;51.914;8.420;2023-06-26T08:57:23;100149.69;;;31.25
15709;BMP180;7954;51.914;8.420;2023-06-26T08:59:53;100142.91;;;31.58
15709;BMP180;7954;51.914;8.420;2023-06-26T09:02:21;100165.59;;;31.38
15709;BMP180;7954;51.914;8.420;2023-06-26T09:04:50;100156.13;;;31.50
15709;BMP180;7954;51.914;8.420;2023-06-26T09:07:18;100150.75;;;31.48
15709;BMP180;7954;51.914;8.420;2023-06-26T09:09:48;100145.41;;;31.57
15709;BMP180;7954;51.914;8.420;2023-06-26T09:12:16;100150.34;;;31.54
15709;BMP180;7954;51.914;8.420;2023-06-26T09:14:44;100189.44;;;31.42
15709;BMP180;7954;51.914;8.420;2023-06-26T09:17:13;100173.81;;;31.32
15709;BMP180;7954;51.914;8.420;2023-06-26T09:19:45;100171.50;;;31.78
15709;BMP180;7954;51.914;8.420;2023-06-26T09:22:13;100160.50;;;32.03
15709;BMP180;7954;51.914;8.420;2023-06-26T09:24:43;100160.59;;;32.38
15709;BMP180;7954;51.914;8.420;2023-06-26T09:27:13;100163.44;;;32.41
15709;BMP180;7954;51.914;8.420;2023-06-26T09:29:41;100162.44;;;32.50
15709;BMP180;7954;51.914;8.420;2023-06-26T09:32:10;100162.66;;;32.42
15709;BMP180;7954;51.914;8.420;2023-06-26T09:34:41;100154.69;;;32.40
15709;BMP180;7954;51.914;8.420;2023-06-26T09:37:11;100158.78;;;32.37
15709;BMP180;7954;51.914;8.420;2023-06-26T09:39:40;100166.34;;;32.55
15709;BMP180;7954;51.914;8.420;2023-06-26T09:42:08;100152.06;;;32.40
15709;BMP180;7954;51.914;8.420;2023-06-26T09:44:43;100169.91;;;32.34
15709;BMP180;7954;51.914;8.420;2023-06-26T09:47:11;100149.88;;;32.23
15709;BMP180;7954;51.914;8.420;2023-06-26T09:49:41;100165.72;;;32.03
15709;BMP180;7954;51.914;8.420;2023-06-26T09:52:09;100164.28;;;32.18
15709;BMP180;7954;51.914;8.420;2023-06-26T09:54:37;100170.69;;;32.66
15709;BMP180;7954;51.914;8.420;2023-06-26T09:57:08;100153.53;;;32.69
15709;BMP180;7954;51.914;8.420;2023-06-26T09:59:38;100160.16;;;32.43
15709;BMP180;7954;51.914;8.420;2023-06-26T10:02:06;100154.78;;;32.86
15709;BMP180;7954;51.914;8.420;2023-06-26T10:04:35;100155.66;;;32.63
15709;BMP180;7954;51.914;8.420;2023-06-26T10:07:05;100158.50;;;32.78
15709;BMP180;7954;51.914;8.420;2023-06-26T10:09:36;100152.50;;;33.02
15709;BMP180;7954;51.914;8.420;2023-06-26T10:12:09;100152.25;;;32.87
15709;BMP180;7954;51.914;8.420;2023-06-26T10:14:41;100138.91;;;32.50
15709;BMP180;7954;51.914;8.420;2023-06-26T10:17:16;100155.25;;;32.36
15709;BMP180;7954;51.914;8.420;2023-06-26T10:19:47;100155.53;;;32.06
15709;BMP180;7954;51.914;8.420;2023-06-26T10:22:17;100161.34;;;31.71
15709;BMP180;7954;51.914;8.420;2023-06-26T10:24:47;100155.09;;;31.91
15709;BMP180;7954;51.914;8.420;2023-06-26T10:27:17;100161.78;;;31.66
15709;BMP180;7954;51.914;8.420;2023-06-26T10:29:51;100172.72;;;31.72
15709;BMP180;7954;51.914;8.420;2023-06-26T10:32:21;100161.59;;;32.28
15709;BMP180;7954;51.914;8.420;2023-06-26T10:34:51;100164.09;;;32.71
15709;BMP180;7954;51.914;8.420;2023-06-26T10:37:20;100174.81;;;33.20
15709;BMP180;7954;51.914;8.420;2023-06-26T10:39:49;100151.34;;;32.98
15709;BMP180;7954;51.914;8.420;2023-06-26T10:42:18;100150.81;;;32.35
15709;BMP180;7954;51.914;8.420;2023-06-26T10:44:48;100176.97;;;31.81
15709;BMP180;7954;51.914;8.420;2023-06-26T10:47:29;100200.03;;;31.34
15709;BMP180;7954;51.914;8.420;2023-06-26T10:50:17;100202.09;;;31.58
15709;BMP180;7954;51.914;8.420;2023-06-26T10:53:08;100202.88;;;31.57
15709;BMP180;7954;51.914;8.420;2023-06-26T10:55:42;100203.03;;;31.38
15709;BMP180;7954;51.914;8.420;2023-06-26T10:58:27;100201.41;;;31.19
15709;BMP180;7954;51.914;8.420;2023-06-26T11:04:06;100204.81;;;31.28
15709;BMP180;7954;51.914;8.420;2023-06-26T11:06:36;100191.97;;;31.84
15709;BMP180;7954;51.914;8.420;2023-06-26T11:09:10;100194.78;;;32.18
15709;BMP180;7954;51.914;8.420;2023-06-26T11:11:58;100206.13;;;32.51
15709;BMP180;7954;51.914;8.420;2023-06-26T11:14:30;100215.56;;;32.16
15709;BMP180;7954;51.914;8.420;2023-06-26T11:16:59;100201.22;;;32.11
15709;BMP180;7954;51.914;8.420;2023-06-26T11:19:30;100217.47;;;32.07
15709;BMP180;7954;51.914;8.420;2023-06-26T11:21:59;100211.25;;;31.53
15709;BMP180;7954;51.914;8.420;2023-06-26T11:24:29;100212.78;;;31.20
15709;BMP180;7954;51.914;8.420;2023-06-26T11:27:02;100212.28;;;31.45
15709;BMP180;7954;51.914;8.420;2023-06-26T11:29:31;100199.94;;;31.64
15709;BMP180;7954;51.914;8.420;2023-06-26T11:32:02;100202.25;;;31.71
15709;BMP180;7954;51.914;8.420;2023-06-26T11:34:34;100206.22;;;32.08
15709;BMP180;7954;51.914;8.420;2023-06-26T11:37:04;100203.22;;;32.25
15709;BMP180;7954;51.914;8.420;2023-06-26T11:39:33;100192.00;;;32.38
15709;BMP180;7954;51.914;8.420;2023-06-26T11:42:01;100197.06;;;32.58
15709;BMP180;7954;51.914;8.420;2023-06-26T11:44:30;100198.47;;;32.98
15709;BMP180;7954;51.914;8.420;2023-06-26T11:46:58;100206.69;;;33.26
15709;BMP180;7954;51.914;8.420;2023-06-26T11:49:28;100201.22;;;33.11
15709;BMP180;7954;51.914;8.420;2023-06-26T11:52:02;100196.44;;;33.17
15709;BMP180;7954;51.914;8.420;2023-06-26T11:54:31;100197.59;;;33.21
15709;BMP180;7954;51.914;8.420;2023-06-26T11:56:59;100206.00;;;33.39
15709;BMP180;7954;51.914;8.420;2023-06-26T11:59:34;100221.94;;;33.65
15709;BMP180;7954;51.914;8.420;2023-06-26T12:02:07;100227.03;;;33.75
15709;BMP180;7954;51.914;8.420;2023-06-26T12:04:37;100203.63;;;33.90
15709;BMP180;7954;51.914;8.420;2023-06-26T12:07:08;100222.28;;;33.47
15709;BMP180;7954;51.914;8.420;2023-06-26T12:09:41;100212.84;;;33.03
15709;BMP180;7954;51.914;8.420;2023-06-26T12:12:11;100216.13;;;33.01
15709;BMP180;7954;51.914;8.420;2023-06-26T12:14:39;100218.34;;;33.18
15709;BMP180;7954;51.914;8.420;2023-06-26T12:17:09;100215.56;;;33.39
15709;BMP180;7954;51.914;8.420;2023-06-26T12:19:38;100231.28;;;33.39
15709;BMP180;7954;51.914;8.420;2023-06-26T12:22:10;100229.00;;;33.43
15709;BMP180;7954;51.914;8.420;2023-06-26T12:24:39;100227.75;;;33.38
15709;BMP180;7954;51.914;8.420;2023-06-26T12:27:09;100228.31;;;33.34
15709;BMP180;7954;51.914;8.420;2023-06-26T12:29:39;100213.34;;;33.79
15709;BMP180;7954;51.914;8.420;2023-06-26T12:32:09;100210.47;;;33.88
15709;BMP180;7954;51.914;8.420;2023-06-26T12:34:38;100232.66;;;33.34
15709;BMP180;7954;51.914;8.420;2023-06-26T12:37:10;100228.53;;;33.72
15709;BMP180;7954;51.914;8.420;2023-06-26T12:39:49;100229.00;;;33.43
15709;BMP180;7954;51.914;8.420;2023-06-26T12:42:18;100217.81;;;33.46
15709;BMP180;7954;51.914;8.420;2023-06-26T12:44:46;100224.44;;;33.64
15709;BMP180;7954;51.914;8.420;2023-06-26T12:47:15;100241.50;;;33.82
15709;BMP180;7954;51.914;8.420;2023-06-26T12:49:44;100240.41;;;33.55
15709;BMP180;7954;51.914;8.420;2023-06-26T12:52:14;100271.25;;;33.48
15709;BMP180;7954;51.914;8.420;2023-06-26T12:54:43;100265.69;;;34.49
15709;BMP180;7954;51.914;8.420;2023-06-26T12:57:11;100257.09;;;34.76
15709;BMP180;7954;51.914;8.420;2023-06-26T12:59:41;100238.06;;;34.43
15709;BMP180;7954;51.914;8.420;2023-06-26T13:02:09;100266.69;;;34.75
15709;BMP180;7954;51.914;8.420;2023-06-26T13:04:39;100238.69;;;35.39
15709;BMP180;7954;51.914;8.420;2023-06-26T13:07:08;100230.16;;;36.22
15709;BMP180;7954;51.914;8.420;2023-06-26T13:09:38;100271.31;;;36.89
15709;BMP180;7954;51.914;8.420;2023-06-26T13:12:08;100285.06;;;37.86
15709;BMP180;7954;51.914;8.420;2023-06-26T13:14:37;100258.59;;;38.78
15709;BMP180;7954;51.914;8.420;2023-06-26T13:17:05;100272.09;;;39.33
15709;BMP180;7954;51.914;8.420;2023-06-26T13:19:35;100268.63;;;40.03
15709;BMP180;7954;51.914;8.420;2023-06-26T13:22:05;100268.38;;;40.92
15709;BMP180;7954;51.914;8.420;2023-06-26T13:24:33;100259.59;;;41.52
15709;BMP180;7954;51.914;8.420;2023-06-26T13:27:02;100193.88;;;40.47
15709;BMP180;7954;51.914;8.420;2023-06-26T13:29:31;100228.19;;;38.06
15709;BMP180;7954;51.914;8.420;2023-06-26T13:32:00;100236.94;;;36.31
15709;BMP180;7954;51.914;8.420;2023-06-26T13:34:31;100329.75;;;37.68
15709;BMP180;7954;51.914;8.420;2023-06-26T13:36:59;100249.38;;;36.61
15709;BMP180;7954;51.914;8.420;2023-06-26T13:39:28;100271.94;;;36.99
15709;BMP180;7954;51.914;8.420;2023-06-26T13:41:56;100273.56;;;36.28
15709;BMP180;7954;51.914;8.420;2023-06-26T13:44:26;100242.25;;;37.61
15709;BMP180;7954;51.914;8.420;2023-06-26T13:47:04;100259.78;;;36.05
15709;BMP180;7954;51.914;8.420;2023-06-26T13:49:37;100306.28;;;38.03
15709;BMP180;7954;51.914;8.420;2023-06-26T13:52:07;100250.16;;;37.31
15709;BMP180;7954;51.914;8.420;2023-06-26T13:54:36;100272.44;;;35.97
15709;BMP180;7954;51.914;8.420;2023-06-26T13:57:06;100292.28;;;35.80
15709;BMP180;7954;51.914;8.420;2023-06-26T13:59:38;100281.22;;;36.51
15709;BMP180;7954;51.914;8.420;2023-06-26T14:02:07;100307.47;;;37.78
15709;BMP180;7954;51.914;8.420;2023-06-26T14:04:35;100319.78;;;39.01
15709;BMP180;7954;51.914;8.420;2023-06-26T14:07:04;100248.00;;;39.44
15709;BMP180;7954;51.914;8.420;2023-06-26T14:09:32;100254.91;;;38.59
15709;BMP180;7954;51.914;8.420;2023-06-26T14:12:00;100256.41;;;37.32
15709;BMP180;7954;51.914;8.420;2023-06-26T14:14:30;100341.59;;;38.19
15709;BMP180;7954;51.914;8.420;2023-06-26T14:16:59;100277.75;;;39.23
15709;BMP180;7954;51.914;8.420;2023-06-26T14:19:28;100279.78;;;40.52
15709;BMP180;7954;51.914;8.420;2023-06-26T14:21:56;100236.25;;;39.92
15709;BMP180;7954;51.914;8.420;2023-06-26T14:24:26;100239.16;;;37.98
15709;BMP180;7954;51.914;8.420;2023-06-26T14:26:54;100261.50;;;36.32